sensor_id;sensor_type;location;lat;lon;timestamp;pressure;altitude;pressure_sealevel;temperature;humidity
45872;BME280;32333;55.844;-3.210;2023-03-23T00:01:49;96244.13;;;5.29;100.00
45872;BME280;32333;55.844;-3.210;2023-03-23T00:04:16;96241.27;;;5.62;100.00
45872;BME280;32333;55.844;-3.210;2023-03-23T00:06:44;96247.71;;;5.33;100.00
45872;BME280;32333;55.844;-3.210;2023-03-23T00:09:13;96253.85;;;5.47;100.00
45872;BME280;32333;55.844;-3.210;2023-03-23T00:11:41;96253.74;;;4.76;100.00
45872;BME280;32333;55.844;-3.210;2023-03-23T00:14:36;96252.21;;;4.22;100.00
45872;BME280;32333;55.844;-3.210;2023-03-23T00:17:03;96263.36;;;4.09;100.00
45872;BME280;32333;55.844;-3.210;2023-03-23T00:19:31;96251.49;;;3.68;100.00
45872;BME280;32333;55.844;-3.210;2023-03-23T00:21:59;96251.56;;;3.40;100.00
45872;BME280;32333;55.844;-3.210;2023-03-23T00:24:27;96253.94;;;3.83;100.00
45872;BME280;32333;55.844;-3.210;2023-03-23T00:26:54;96263.31;;;3.07;100.00
45872;BME280;32333;55.844;-3.210;2023-03-23T00:29:22;96274.83;;;3.57;100.00
45872;BME280;32333;55.844;-3.210;2023-03-23T00:31:50;96265.44;;;3.22;100.00
45872;BME280;32333;55.844;-3.210;2023-03-23T00:34:20;96272.68;;;3.26;100.00
45872;BME280;32333;55.844;-3.210;2023-03-23T00:36:50;96279.68;;;2.99;100.00
45872;BME280;32333;55.844;-3.210;2023-03-23T00:39:18;96287.77;;;2.76;100.00
45872;BME280;32333;55.844;-3.210;2023-03-23T00:41:46;96288.33;;;3.14;100.00
45872;BME280;32333;55.844;-3.210;2023-03-23T00:44:35;96286.64;;;2.70;100.00
45872;BME280;32333;55.844;-3.210;2023-03-23T00:47:03;96293.08;;;2.70;100.00
45872;BME280;32333;55.844;-3.210;2023-03-23T00:49:31;96294.10;;;3.05;100.00
45872;BME280;32333;55.844;-3.210;2023-03-23T00:52:00;96291.38;;;2.92;100.00
45872;BME280;32333;55.844;-3.210;2023-03-23T00:54:28;96300.29;;;2.99;100.00
45872;BME280;32333;55.844;-3.210;2023-03-23T00:56:56;96296.06;;;3.19;100.00
45872;BME280;32333;55.844;-3.210;2023-03-23T00:59:24;96306.30;;;2.90;100.00
45872;BME280;32333;55.844;-3.210;2023-03-23T01:01:51;96303.82;;;3.05;100.00
45872;BME280;32333;55.844;-3.210;2023-03-23T01:04:19;96307.93;;;2.94;100.00
45872;BME280;32333;55.844;-3.210;2023-03-23T01:06:49;96309.96;;;3.44;100.00
45872;BME280;32333;55.844;-3.210;2023-03-23T01:09:18;96318.89;;;3.24;100.00
45872;BME280;32333;55.844;-3.210;2023-03-23T01:11:48;96319.90;;;2.72;100.00
45872;BME280;32333;55.844;-3.210;2023-03-23T01:14:36;96321.80;;;3.67;100.00
45872;BME280;32333;55.844;-3.210;2023-03-23T01:17:03;96328.46;;;3.50;100.00
45872;BME280;32333;55.844;-3.210;2023-03-23T01:19:30;96326.24;;;2.78;100.00
45872;BME280;32333;55.844;-3.210;2023-03-23T01:21:59;96319.83;;;3.21;100.00
45872;BME280;32333;55.844;-3.210;2023-03-23T01:24:26;96325.48;;;3.29;100.00
45872;BME280;32333;55.844;-3.210;2023-03-23T01:26:54;96328.78;;;2.91;100.00
45872;BME280;32333;55.844;-3.210;2023-03-23T01:29:21;96324.69;;;3.03;100.00
45872;BME280;32333;55.844;-3.210;2023-03-23T01:31:49;96334.05;;;3.17;100.00
45872;BME280;32333;55.844;-3.210;2023-03-23T01:34:16;96339.57;;;3.38;100.00
45872;BME280;32333;55.844;-3.210;2023-03-23T01:36:44;96337.18;;;2.47;100.00
45872;BME280;32333;55.844;-3.210;2023-03-23T01:39:12;96346.25;;;3.08;100.00
45872;BME280;32333;55.844;-3.210;2023-03-23T01:41:40;96344.27;;;3.08;100.00
45872;BME280;32333;55.844;-3.210;2023-03-23T01:45:24;96357.46;;;3.36;100.00
45872;BME280;32333;55.844;-3.210;2023-03-23T01:47:56;96361.78;;;3.27;100.00
45872;BME280;32333;55.844;-3.210;2023-03-23T01:50:26;96363.16;;;3.20;100.00
45872;BME280;32333;55.844;-3.210;2023-03-23T01:52:57;96360.78;;;3.15;100.00
45872;BME280;32333;55.844;-3.210;2023-03-23T01:55:27;96364.89;;;2.96;100.00
45872;BME280;32333;55.844;-3.210;2023-03-23T01:57:56;96363.52;;;2.89;100.00
45872;BME280;32333;55.844;-3.210;2023-03-23T02:00:24;96359.45;;;2.86;100.00
45872;BME280;32333;55.844;-3.210;2023-03-23T02:02:53;96370.29;;;2.52;100.00
45872;BME280;32333;55.844;-3.210;2023-03-23T02:05:27;96362.16;;;2.96;100.00
45872;BME280;32333;55.844;-3.210;2023-03-23T02:07:58;96369.48;;;3.85;100.00
45872;BME280;32333;55.844;-3.210;2023-03-23T02:10:26;96356.74;;;3.01;100.00
45872;BME280;32333;55.844;-3.210;2023-03-23T02:14:36;96379.12;;;2.84;100.00
45872;BME280;32333;55.844;-3.210;2023-03-23T02:17:07;96379.78;;;2.45;100.00
45872;BME280;32333;55.844;-3.210;2023-03-23T02:19:55;96378.83;;;3.07;100.00
45872;BME280;32333;55.844;-3.210;2023-03-23T02:22:46;96382.31;;;3.36;100.00
45872;BME280;32333;55.844;-3.210;2023-03-23T02:25:32;96387.37;;;2.54;100.00
45872;BME280;32333;55.844;-3.210;2023-03-23T02:28:16;96396.97;;;3.28;100.00
45872;BME280;32333;55.844;-3.210;2023-03-23T02:31:00;96395.11;;;2.71;100.00
45872;BME280;32333;55.844;-3.210;2023-03-23T02:33:40;96406.89;;;2.83;100.00
45872;BME280;32333;55.844;-3.210;2023-03-23T02:36:14;96407.84;;;3.70;100.00
45872;BME280;32333;55.844;-3.210;2023-03-23T02:38:53;96402.37;;;3.63;100.00
45872;BME280;32333;55.844;-3.210;2023-03-23T02:41:25;96408.27;;;2.99;100.00
45872;BME280;32333;55.844;-3.210;2023-03-23T02:44:38;96417.69;;;3.52;100.00
45872;BME280;32333;55.844;-3.210;2023-03-23T02:47:11;96412.84;;;2.65;100.00
45872;BME280;32333;55.844;-3.210;2023-03-23T02:49:41;96415.68;;;2.71;100.00
45872;BME280;32333;55.844;-3.210;2023-03-23T02:52:14;96420.57;;;3.28;100.00
45872;BME280;32333;55.844;-3.210;2023-03-23T02:54:44;96419.51;;;3.23;100.00
45872;BME280;32333;55.844;-3.210;2023-03-23T02:57:13;96423.66;;;3.50;100.00
45872;BME280;32333;55.844;-3.210;2023-03-23T02:59:41;96422.95;;;2.80;100.00
45872;BME280;32333;55.844;-3.210;2023-03-23T03:02:11;96423.96;;;3.39;100.00
45872;BME280;32333;55.844;-3.210;2023-03-23T03:04:42;96421.27;;;3.34;100.00
45872;BME280;32333;55.844;-3.210;2023-03-23T03:07:28;96419.84;;;2.93;100.00
45872;BME280;32333;55.844;-3.210;2023-03-23T03:09:58;96415.90;;;3.20;100.00
45872;BME280;32333;55.844;-3.210;2023-03-23T03:14:38;96424.17;;;2.68;100.00
45872;BME280;32333;55.844;-3.210;2023-03-23T03:17:16;96428.10;;;2.81;100.00
45872;BME280;32333;55.844;-3.210;2023-03-23T03:19:49;96428.42;;;2.25;100.00
45872;BME280;32333;55.844;-3.210;2023-03-23T03:22:20;96434.20;;;3.06;100.00
45872;BME280;32333;55.844;-3.210;2023-03-23T03:24:48;96438.54;;;2.97;100.00
45872;BME280;32333;55.844;-3.210;2023-03-23T03:27:20;96432.03;;;3.03;100.00
45872;BME280;32333;55.844;-3.210;2023-03-23T03:29:51;96432.72;;;3.15;100.00
45872;BME280;32333;55.844;-3.210;2023-03-23T03:32:22;96431.23;;;2.76;100.00
45872;BME280;32333;55.844;-3.210;2023-03-23T03:34:52;96436.52;;;3.29;100.00
45872;BME280;32333;55.844;-3.210;2023-03-23T03:37:20;96429.15;;;2.72;100.00
45872;BME280;32333;55.844;-3.210;2023-03-23T03:39:47;96425.10;;;2.78;100.00
45872;BME280;32333;55.844;-3.210;2023-03-23T03:44:36;96443.67;;;2.20;100.00
45872;BME280;32333;55.844;-3.210;2023-03-23T03:47:03;96440.32;;;2.44;100.00
45872;BME280;32333;55.844;-3.210;2023-03-23T03:49:31;96438.55;;;1.71;100.00
45872;BME280;32333;55.844;-3.210;2023-03-23T03:51:59;96449.24;;;1.49;100.00
45872;BME280;32333;55.844;-3.210;2023-03-23T03:54:26;96447.13;;;1.95;100.00
45872;BME280;32333;55.844;-3.210;2023-03-23T03:56:54;96455.72;;;2.08;100.00
45872;BME280;32333;55.844;-3.210;2023-03-23T03:59:21;96458.02;;;1.86;100.00
45872;BME280;32333;55.844;-3.210;2023-03-23T04:01:49;96458.53;;;2.01;100.00
45872;BME280;32333;55.844;-3.210;2023-03-23T04:04:17;96459.97;;;2.37;100.00
45872;BME280;32333;55.844;-3.210;2023-03-23T04:06:44;96456.66;;;2.23;100.00
45872;BME280;32333;55.844;-3.210;2023-03-23T04:09:11;96462.85;;;2.20;100.00
45872;BME280;32333;55.844;-3.210;2023-03-23T04:11:39;96458.76;;;2.06;100.00
45872;BME280;32333;55.844;-3.210;2023-03-23T04:14:35;96464.13;;;2.52;100.00
45872;BME280;32333;55.844;-3.210;2023-03-23T04:17:03;96471.10;;;1.87;100.00
45872;BME280;32333;55.844;-3.210;2023-03-23T04:19:30;96478.16;;;1.82;100.00
45872;BME280;32333;55.844;-3.210;2023-03-23T04:21:59;96479.83;;;2.34;100.00
45872;BME280;32333;55.844;-3.210;2023-03-23T04:24:27;96478.90;;;2.10;100.00
45872;BME280;32333;55.844;-3.210;2023-03-23T04:26:54;96479.87;;;1.95;100.00
45872;BME280;32333;55.844;-3.210;2023-03-23T04:29:22;96487.37;;;2.09;100.00
45872;BME280;32333;55.844;-3.210;2023-03-23T04:31:49;96495.01;;;1.85;100.00
45872;BME280;32333;55.844;-3.210;2023-03-23T04:34:17;96500.04;;;2.43;100.00
45872;BME280;32333;55.844;-3.210;2023-03-23T04:36:44;96499.07;;;2.05;100.00
45872;BME280;32333;55.844;-3.210;2023-03-23T04:39:13;96500.72;;;2.18;100.00
45872;BME280;32333;55.844;-3.210;2023-03-23T04:41:40;96505.30;;;1.67;100.00
45872;BME280;32333;55.844;-3.210;2023-03-23T04:44:36;96507.88;;;2.23;100.00
45872;BME280;32333;55.844;-3.210;2023-03-23T04:47:03;96505.40;;;2.35;100.00
45872;BME280;32333;55.844;-3.210;2023-03-23T04:49:31;96511.05;;;2.13;100.00
45872;BME280;32333;55.844;-3.210;2023-03-23T04:51:59;96507.10;;;2.39;100.00
45872;BME280;32333;55.844;-3.210;2023-03-23T04:54:27;96513.64;;;1.88;100.00
45872;BME280;32333;55.844;-3.210;2023-03-23T04:56:55;96516.91;;;1.82;100.00
45872;BME280;32333;55.844;-3.210;2023-03-23T04:59:24;96517.25;;;2.00;100.00
45872;BME280;32333;55.844;-3.210;2023-03-23T05:01:51;96516.21;;;2.70;100.00
45872;BME280;32333;55.844;-3.210;2023-03-23T05:04:18;96517.74;;;2.70;100.00
45872;BME280;32333;55.844;-3.210;2023-03-23T05:06:47;96522.18;;;2.44;100.00
45872;BME280;32333;55.844;-3.210;2023-03-23T05:09:14;96525.39;;;1.95;100.00
45872;BME280;32333;55.844;-3.210;2023-03-23T05:11:42;96525.37;;;1.88;100.00
45872;BME280;32333;55.844;-3.210;2023-03-23T05:14:39;96532.99;;;2.19;100.00
45872;BME280;32333;55.844;-3.210;2023-03-23T05:17:08;96528.14;;;2.37;100.00
45872;BME280;32333;55.844;-3.210;2023-03-23T05:19:35;96532.42;;;2.68;100.00
45872;BME280;32333;55.844;-3.210;2023-03-23T05:22:03;96534.64;;;2.01;100.00
45872;BME280;32333;55.844;-3.210;2023-03-23T05:24:30;96530.80;;;2.17;100.00
45872;BME280;32333;55.844;-3.210;2023-03-23T05:26:59;96525.46;;;2.47;100.00
45872;BME280;32333;55.844;-3.210;2023-03-23T05:29:27;96517.77;;;2.61;100.00
45872;BME280;32333;55.844;-3.210;2023-03-23T05:31:54;96518.11;;;2.06;100.00
45872;BME280;32333;55.844;-3.210;2023-03-23T05:34:23;96511.66;;;1.98;100.00
45872;BME280;32333;55.844;-3.210;2023-03-23T05:36:50;96515.46;;;2.26;100.00
45872;BME280;32333;55.844;-3.210;2023-03-23T05:39:18;96513.48;;;3.51;100.00
45872;BME280;32333;55.844;-3.210;2023-03-23T05:41:45;96510.77;;;2.38;100.00
45872;BME280;32333;55.844;-3.210;2023-03-23T05:44:36;96513.68;;;1.92;100.00
45872;BME280;32333;55.844;-3.210;2023-03-23T05:47:04;96514.20;;;2.34;100.00
45872;BME280;32333;55.844;-3.210;2023-03-23T05:49:31;96515.72;;;2.61;100.00
45872;BME280;32333;55.844;-3.210;2023-03-23T05:52:00;96520.37;;;2.61;100.00
45872;BME280;32333;55.844;-3.210;2023-03-23T05:54:27;96525.27;;;2.27;100.00
45872;BME280;32333;55.844;-3.210;2023-03-23T05:56:55;96528.79;;;1.88;100.00
45872;BME280;32333;55.844;-3.210;2023-03-23T05:59:23;96528.98;;;2.51;100.00
45872;BME280;32333;55.844;-3.210;2023-03-23T06:01:51;96528.13;;;2.46;100.00
45872;BME280;32333;55.844;-3.210;2023-03-23T06:04:19;96525.81;;;1.75;100.00
45872;BME280;32333;55.844;-3.210;2023-03-23T06:06:46;96526.02;;;2.09;100.00
45872;BME280;32333;55.844;-3.210;2023-03-23T06:09:14;96529.66;;;2.38;100.00
45872;BME280;32333;55.844;-3.210;2023-03-23T06:11:42;96526.19;;;2.38;100.00
45872;BME280;32333;55.844;-3.210;2023-03-23T06:14:35;96528.12;;;3.12;100.00
45872;BME280;32333;55.844;-3.210;2023-03-23T06:17:03;96522.72;;;2.68;100.00
45872;BME280;32333;55.844;-3.210;2023-03-23T06:19:30;96525.12;;;1.85;100.00
45872;BME280;32333;55.844;-3.210;2023-03-23T06:21:57;96528.03;;;3.20;100.00
45872;BME280;32333;55.844;-3.210;2023-03-23T06:24:25;96526.29;;;2.66;100.00
45872;BME280;32333;55.844;-3.210;2023-03-23T06:26:52;96527.99;;;3.05;100.00
45872;BME280;32333;55.844;-3.210;2023-03-23T06:29:20;96525.58;;;3.09;100.00
45872;BME280;32333;55.844;-3.210;2023-03-23T06:31:52;96522.14;;;3.40;100.00
45872;BME280;32333;55.844;-3.210;2023-03-23T06:34:21;96520.20;;;2.68;100.00
45872;BME280;32333;55.844;-3.210;2023-03-23T06:36:49;96520.55;;;3.34;100.00
45872;BME280;32333;55.844;-3.210;2023-03-23T06:39:16;96516.82;;;3.82;100.00
45872;BME280;32333;55.844;-3.210;2023-03-23T06:41:44;96516.79;;;3.47;100.00
45872;BME280;32333;55.844;-3.210;2023-03-23T06:44:36;96520.71;;;3.84;100.00
45872;BME280;32333;55.844;-3.210;2023-03-23T06:47:03;96516.43;;;3.72;100.00
45872;BME280;32333;55.844;-3.210;2023-03-23T06:49:30;96524.73;;;3.42;100.00
45872;BME280;32333;55.844;-3.210;2023-03-23T06:51:57;96526.58;;;3.43;100.00
45872;BME280;32333;55.844;-3.210;2023-03-23T06:54:27;96528.45;;;3.83;100.00
45872;BME280;32333;55.844;-3.210;2023-03-23T06:56:54;96525.66;;;3.68;100.00
45872;BME280;32333;55.844;-3.210;2023-03-23T06:59:22;96525.68;;;3.86;100.00
45872;BME280;32333;55.844;-3.210;2023-03-23T07:01:50;96522.30;;;4.05;100.00
45872;BME280;32333;55.844;-3.210;2023-03-23T07:04:18;96525.72;;;4.38;100.00
45872;BME280;32333;55.844;-3.210;2023-03-23T07:06:46;96527.82;;;4.15;100.00
45872;BME280;32333;55.844;-3.210;2023-03-23T07:09:14;96511.68;;;3.94;100.00
45872;BME280;32333;55.844;-3.210;2023-03-23T07:11:42;96521.90;;;3.84;100.00
45872;BME280;32333;55.844;-3.210;2023-03-23T07:14:36;96530.91;;;3.27;100.00
45872;BME280;32333;55.844;-3.210;2023-03-23T07:17:03;96527.80;;;4.13;100.00
45872;BME280;32333;55.844;-3.210;2023-03-23T07:19:31;96537.39;;;3.66;100.00
45872;BME280;32333;55.844;-3.210;2023-03-23T07:22:00;96544.89;;;4.02;100.00
45872;BME280;32333;55.844;-3.210;2023-03-23T07:24:27;96548.84;;;3.74;100.00
45872;BME280;32333;55.844;-3.210;2023-03-23T07:26:54;96556.54;;;3.70;100.00
45872;BME280;32333;55.844;-3.210;2023-03-23T07:29:23;96559.97;;;3.94;100.00
45872;BME280;32333;55.844;-3.210;2023-03-23T07:31:51;96560.18;;;4.31;100.00
45872;BME280;32333;55.844;-3.210;2023-03-23T07:34:19;96563.97;;;4.04;100.00
45872;BME280;32333;55.844;-3.210;2023-03-23T07:36:48;96566.10;;;4.30;100.00
45872;BME280;32333;55.844;-3.210;2023-03-23T07:39:16;96567.41;;;4.52;100.00
45872;BME280;32333;55.844;-3.210;2023-03-23T07:41:43;96565.14;;;3.67;100.00
45872;BME280;32333;55.844;-3.210;2023-03-23T07:44:36;96561.34;;;4.07;100.00
45872;BME280;32333;55.844;-3.210;2023-03-23T07:47:03;96562.23;;;4.27;100.00
45872;BME280;32333;55.844;-3.210;2023-03-23T07:49:31;96566.08;;;4.05;100.00
45872;BME280;32333;55.844;-3.210;2023-03-23T07:51:59;96566.18;;;4.46;100.00
45872;BME280;32333;55.844;-3.210;2023-03-23T07:54:30;96566.95;;;4.27;100.00
45872;BME280;32333;55.844;-3.210;2023-03-23T07:56:58;96566.28;;;4.60;100.00
45872;BME280;32333;55.844;-3.210;2023-03-23T07:59:26;96562.96;;;4.73;100.00
45872;BME280;32333;55.844;-3.210;2023-03-23T08:01:54;96560.98;;;5.09;100.00
45872;BME280;32333;55.844;-3.210;2023-03-23T08:04:31;96559.38;;;5.30;100.00
45872;BME280;32333;55.844;-3.210;2023-03-23T08:06:59;96553.35;;;6.16;100.00
45872;BME280;32333;55.844;-3.210;2023-03-23T08:09:26;96556.58;;;5.22;100.00
45872;BME280;32333;55.844;-3.210;2023-03-23T08:11:53;96557.43;;;5.85;100.00
45872;BME280;32333;55.844;-3.210;2023-03-23T08:14:36;96555.35;;;6.31;100.00
45872;BME280;32333;55.844;-3.210;2023-03-23T08:17:04;96551.93;;;6.44;100.00
45872;BME280;32333;55.844;-3.210;2023-03-23T08:19:31;96552.83;;;6.51;100.00
45872;BME280;32333;55.844;-3.210;2023-03-23T08:22:01;96554.74;;;6.56;100.00
45872;BME280;32333;55.844;-3.210;2023-03-23T08:24:31;96557.14;;;6.54;100.00
45872;BME280;32333;55.844;-3.210;2023-03-23T08:27:00;96552.45;;;6.97;100.00
45872;BME280;32333;55.844;-3.210;2023-03-23T08:29:28;96553.34;;;7.51;100.00
45872;BME280;32333;55.844;-3.210;2023-03-23T08:31:58;96547.26;;;7.35;100.00
45872;BME280;32333;55.844;-3.210;2023-03-23T08:34:26;96548.80;;;7.65;100.00
45872;BME280;32333;55.844;-3.210;2023-03-23T08:36:54;96550.29;;;7.55;100.00
45872;BME280;32333;55.844;-3.210;2023-03-23T08:39:23;96545.87;;;7.65;100.00
45872;BME280;32333;55.844;-3.210;2023-03-23T08:41:51;96542.31;;;7.94;100.00
45872;BME280;32333;55.844;-3.210;2023-03-23T08:44:37;96544.86;;;8.53;100.00
45872;BME280;32333;55.844;-3.210;2023-03-23T08:47:05;96537.86;;;7.53;100.00
45872;BME280;32333;55.844;-3.210;2023-03-23T08:49:33;96537.37;;;8.26;100.00
45872;BME280;32333;55.844;-3.210;2023-03-23T08:52:01;96538.56;;;8.87;100.00
45872;BME280;32333;55.844;-3.210;2023-03-23T08:54:31;96549.15;;;8.26;100.00
45872;BME280;32333;55.844;-3.210;2023-03-23T08:57:03;96555.33;;;8.38;100.00
45872;BME280;32333;55.844;-3.210;2023-03-23T08:59:32;96544.10;;;7.87;100.00
45872;BME280;32333;55.844;-3.210;2023-03-23T09:01:59;96549.73;;;7.92;100.00
45872;BME280;32333;55.844;-3.210;2023-03-23T09:04:27;96544.49;;;8.23;100.00
45872;BME280;32333;55.844;-3.210;2023-03-23T09:06:55;96557.08;;;8.47;100.00
45872;BME280;32333;55.844;-3.210;2023-03-23T09:09:22;96556.27;;;8.04;100.00
45872;BME280;32333;55.844;-3.210;2023-03-23T09:11:50;96561.13;;;7.78;100.00
45872;BME280;32333;55.844;-3.210;2023-03-23T09:14:37;96555.99;;;8.16;100.00
45872;BME280;32333;55.844;-3.210;2023-03-23T09:17:05;96557.56;;;7.86;100.00
45872;BME280;32333;55.844;-3.210;2023-03-23T09:19:33;96560.50;;;9.01;100.00
45872;BME280;32333;55.844;-3.210;2023-03-23T09:22:01;96559.14;;;9.45;100.00
45872;BME280;32333;55.844;-3.210;2023-03-23T09:24:29;96564.41;;;8.58;100.00
45872;BME280;32333;55.844;-3.210;2023-03-23T09:26:57;96569.65;;;8.67;100.00
45872;BME280;32333;55.844;-3.210;2023-03-23T09:29:25;96569.67;;;9.83;100.00
45872;BME280;32333;55.844;-3.210;2023-03-23T09:31:53;96566.51;;;8.44;100.00
45872;BME280;32333;55.844;-3.210;2023-03-23T09:34:22;96565.95;;;8.61;100.00
45872;BME280;32333;55.844;-3.210;2023-03-23T09:36:49;96574.94;;;9.54;100.00
45872;BME280;32333;55.844;-3.210;2023-03-23T09:39:16;96581.04;;;9.29;100.00
45872;BME280;32333;55.844;-3.210;2023-03-23T09:41:53;96583.89;;;8.24;100.00
45872;BME280;32333;55.844;-3.210;2023-03-23T09:44:45;96581.54;;;8.04;100.00
45872;BME280;32333;55.844;-3.210;2023-03-23T09:47:19;96588.83;;;8.49;100.00
45872;BME280;32333;55.844;-3.210;2023-03-23T09:49:53;96586.19;;;8.71;100.00
45872;BME280;32333;55.844;-3.210;2023-03-23T09:52:22;96590.55;;;9.65;100.00
45872;BME280;32333;55.844;-3.210;2023-03-23T09:54:51;96590.80;;;8.98;100.00
45872;BME280;32333;55.844;-3.210;2023-03-23T09:57:26;96594.58;;;9.69;100.00
45872;BME280;32333;55.844;-3.210;2023-03-23T10:00:06;96583.23;;;9.11;100.00
45872;BME280;32333;55.844;-3.210;2023-03-23T10:02:39;96598.44;;;9.21;100.00
45872;BME280;32333;55.844;-3.210;2023-03-23T10:05:23;96588.13;;;9.42;100.00
45872;BME280;32333;55.844;-3.210;2023-03-23T10:07:54;96596.73;;;8.75;100.00
45872;BME280;32333;55.844;-3.210;2023-03-23T10:10:26;96595.67;;;9.51;100.00
45872;BME280;32333;55.844;-3.210;2023-03-23T10:14:48;96593.47;;;8.98;100.00
45872;BME280;32333;55.844;-3.210;2023-03-23T10:17:21;96594.09;;;9.90;100.00
45872;BME280;32333;55.844;-3.210;2023-03-23T10:19:54;96601.49;;;9.64;100.00
45872;BME280;32333;55.844;-3.210;2023-03-23T10:22:29;96600.68;;;9.53;100.00
45872;BME280;32333;55.844;-3.210;2023-03-23T10:25:06;96594.73;;;10.07;100.00
45872;BME280;32333;55.844;-3.210;2023-03-23T10:27:46;96604.75;;;9.96;100.00
45872;BME280;32333;55.844;-3.210;2023-03-23T10:30:21;96612.42;;;10.88;100.00
45872;BME280;32333;55.844;-3.210;2023-03-23T10:32:53;96600.06;;;9.55;100.00
45872;BME280;32333;55.844;-3.210;2023-03-23T10:35:26;96608.76;;;9.77;100.00
45872;BME280;32333;55.844;-3.210;2023-03-23T10:37:59;96609.36;;;9.54;100.00
45872;BME280;32333;55.844;-3.210;2023-03-23T10:40:30;96606.43;;;9.34;100.00
45872;BME280;32333;55.844;-3.210;2023-03-23T10:44:35;96608.52;;;9.01;100.00
45872;BME280;32333;55.844;-3.210;2023-03-23T10:47:05;96601.81;;;9.11;100.00
45872;BME280;32333;55.844;-3.210;2023-03-23T10:49:38;96610.40;;;9.59;100.00
45872;BME280;32333;55.844;-3.210;2023-03-23T10:52:18;96613.69;;;9.43;100.00
45872;BME280;32333;55.844;-3.210;2023-03-23T10:54:51;96608.90;;;9.38;100.00
45872;BME280;32333;55.844;-3.210;2023-03-23T10:57:23;96614.54;;;8.64;100.00
45872;BME280;32333;55.844;-3.210;2023-03-23T10:59:59;96617.48;;;8.61;100.00
45872;BME280;32333;55.844;-3.210;2023-03-23T11:02:28;96619.89;;;8.79;100.00
45872;BME280;32333;55.844;-3.210;2023-03-23T11:04:59;96619.08;;;8.83;100.00
45872;BME280;32333;55.844;-3.210;2023-03-23T11:07:33;96622.98;;;8.87;100.00
45872;BME280;32333;55.844;-3.210;2023-03-23T11:10:15;96635.71;;;8.99;100.00
45872;BME280;32333;55.844;-3.210;2023-03-23T11:14:37;96629.49;;;8.97;100.00
45872;BME280;32333;55.844;-3.210;2023-03-23T11:17:18;96623.22;;;8.27;100.00
45872;BME280;32333;55.844;-3.210;2023-03-23T11:19:47;96621.28;;;9.30;100.00
45872;BME280;32333;55.844;-3.210;2023-03-23T11:22:17;96627.41;;;9.70;100.00
45872;BME280;32333;55.844;-3.210;2023-03-23T11:24:47;96640.13;;;8.59;100.00
45872;BME280;32333;55.844;-3.210;2023-03-23T11:27:20;96645.32;;;8.52;100.00
45872;BME280;32333;55.844;-3.210;2023-03-23T11:29:50;96640.73;;;8.51;100.00
45872;BME280;32333;55.844;-3.210;2023-03-23T11:32:19;96649.11;;;8.54;100.00
45872;BME280;32333;55.844;-3.210;2023-03-23T11:34:54;96638.49;;;8.51;100.00
45872;BME280;32333;55.844;-3.210;2023-03-23T11:37:29;96638.87;;;8.77;100.00
45872;BME280;32333;55.844;-3.210;2023-03-23T11:40:14;96637.08;;;9.33;100.00
45872;BME280;32333;55.844;-3.210;2023-03-23T11:44:42;96636.26;;;8.59;100.00
45872;BME280;32333;55.844;-3.210;2023-03-23T11:47:17;96632.09;;;8.84;100.00
45872;BME280;32333;55.844;-3.210;2023-03-23T11:49:52;96633.72;;;8.45;100.00
45872;BME280;32333;55.844;-3.210;2023-03-23T11:52:32;96628.31;;;8.89;100.00
45872;BME280;32333;55.844;-3.210;2023-03-23T11:55:12;96625.16;;;9.49;100.00
45872;BME280;32333;55.844;-3.210;2023-03-23T11:57:42;96622.39;;;9.21;100.00
45872;BME280;32333;55.844;-3.210;2023-03-23T12:00:15;96621.81;;;8.64;100.00
45872;BME280;32333;55.844;-3.210;2023-03-23T12:03:45;96623.47;;;9.47;100.00
45872;BME280;32333;55.844;-3.210;2023-03-23T12:06:22;96616.43;;;8.10;100.00
45872;BME280;32333;55.844;-3.210;2023-03-23T12:09:02;96627.46;;;8.99;100.00
45872;BME280;32333;55.844;-3.210;2023-03-23T12:11:50;96623.16;;;8.89;100.00
45872;BME280;32333;55.844;-3.210;2023-03-23T12:14:41;96615.41;;;9.87;100.00
45872;BME280;32333;55.844;-3.210;2023-03-23T12:17:20;96625.50;;;9.41;100.00
45872;BME280;32333;55.844;-3.210;2023-03-23T12:20:03;96617.96;;;8.58;100.00
45872;BME280;32333;55.844;-3.210;2023-03-23T12:22:42;96623.45;;;8.33;100.00
45872;BME280;32333;55.844;-3.210;2023-03-23T12:26:02;96617.03;;;8.91;100.00
45872;BME280;32333;55.844;-3.210;2023-03-23T12:28:45;96617.41;;;8.60;100.00
45872;BME280;32333;55.844;-3.210;2023-03-23T12:31:19;96612.33;;;8.37;100.00
45872;BME280;32333;55.844;-3.210;2023-03-23T12:33:56;96616.32;;;9.15;100.00
45872;BME280;32333;55.844;-3.210;2023-03-23T12:36:36;96614.46;;;9.09;100.00
45872;BME280;32333;55.844;-3.210;2023-03-23T12:39:30;96612.76;;;8.97;100.00
45872;BME280;32333;55.844;-3.210;2023-03-23T12:44:41;96614.03;;;9.16;100.00
45872;BME280;32333;55.844;-3.210;2023-03-23T12:47:21;96620.14;;;9.02;100.00
45872;BME280;32333;55.844;-3.210;2023-03-23T12:49:56;96616.31;;;8.37;100.00
45872;BME280;32333;55.844;-3.210;2023-03-23T12:52:28;96613.02;;;8.84;100.00
45872;BME280;32333;55.844;-3.210;2023-03-23T12:55:01;96619.16;;;8.91;100.00
45872;BME280;32333;55.844;-3.210;2023-03-23T12:57:35;96625.59;;;9.55;100.00
45872;BME280;32333;55.844;-3.210;2023-03-23T13:00:12;96614.69;;;9.06;100.00
45872;BME280;32333;55.844;-3.210;2023-03-23T13:02:47;96613.00;;;9.52;100.00
45872;BME280;32333;55.844;-3.210;2023-03-23T13:05:29;96619.40;;;9.99;100.00
45872;BME280;32333;55.844;-3.210;2023-03-23T13:08:05;96615.70;;;9.75;100.00
45872;BME280;32333;55.844;-3.210;2023-03-23T13:10:40;96621.61;;;10.08;100.00
45872;BME280;32333;55.844;-3.210;2023-03-23T13:14:43;96619.60;;;10.10;100.00
45872;BME280;32333;55.844;-3.210;2023-03-23T13:17:22;96617.39;;;9.62;100.00
45872;BME280;32333;55.844;-3.210;2023-03-23T13:20:11;96623.50;;;9.93;100.00
45872;BME280;32333;55.844;-3.210;2023-03-23T13:22:45;96615.07;;;9.16;100.00
45872;BME280;32333;55.844;-3.210;2023-03-23T13:25:19;96618.34;;;9.10;100.00
45872;BME280;32333;55.844;-3.210;2023-03-23T13:27:57;96620.63;;;9.60;100.00
45872;BME280;32333;55.844;-3.210;2023-03-23T13:30:26;96619.86;;;9.53;100.00
45872;BME280;32333;55.844;-3.210;2023-03-23T13:33:03;96620.51;;;9.10;100.00
45872;BME280;32333;55.844;-3.210;2023-03-23T13:35:36;96622.17;;;9.70;100.00